Time;durP1;ratioP1;P1;durP2;ratioP2;P2;SDS_P1;SDS_P2;PMS_P1;PMS_P2;Temp;Humidity;BMP_temperature;BMP_pressure;BME280_temperature;BME280_humidity;BME280_pressure;Samples;Min_cycle;Max_cycle;Signal;HPM_P1;HPM_P2
2021/12/01 00:02:16;;;;;;;8.60;5.10;;;;;;;5.04;100.00;100010.44;5054279;28;20572;-67
2021/12/01 00:05:00;;;;;;;5.25;3.67;;;;;;;5.01;100.00;100021.22;5054052;28;20071;-67
2021/12/01 00:07:44;;;;;;;7.45;5.20;;;;;;;5.03;100.00;100003.47;5053946;28;20048;-67
2021/12/01 00:10:30;;;;;;;5.00;3.08;;;;;;;4.99;100.00;100017.00;5054088;28;20555;-67
2021/12/01 00:13:18;;;;;;;7.68;4.30;;;;;;;5.02;100.00;99990.38;5040266;28;20098;-66
2021/12/01 00:16:03;;;;;;;6.63;4.43;;;;;;;5.03;100.00;99992.91;5053674;28;20048;-66
2021/12/01 00:18:47;;;;;;;5.95;3.45;;;;;;;4.93;100.00;99997.19;5054018;28;20055;-66
2021/12/01 00:21:31;;;;;;;7.00;4.63;;;;;;;4.99;100.00;99986.16;5053850;28;20075;-66
2021/12/01 00:24:15;;;;;;;6.32;4.50;;;;;;;4.98;100.00;99966.00;5053606;28;20083;-65
2021/12/01 00:26:59;;;;;;;5.25;3.30;;;;;;;5.01;100.00;99963.13;5053542;28;20060;-66
2021/12/01 00:29:43;;;;;;;3.97;3.13;;;;;;;4.99;100.00;99975.59;5039857;28;20118;-66
2021/12/01 00:32:27;;;;;;;;;;;;;;;5.07;100.00;99952.09;5054249;28;20167;-66
2021/12/01 00:35:10;;;;;;;7.50;4.20;;;;;;;5.10;100.00;99951.84;5053376;28;20023;-66
2021/12/01 00:37:54;;;;;;;5.25;3.75;;;;;;;5.02;100.00;99948.94;5039531;28;20052;-66
2021/12/01 00:40:39;;;;;;;5.45;3.90;;;;;;;5.08;100.00;99953.78;5053578;28;20409;-63
2021/12/01 00:43:25;;;;;;;7.65;3.78;;;;;;;5.05;100.00;99938.13;5054341;28;20056;-66
2021/12/01 00:49:16;;;;;;;5.82;3.83;;;;;;;5.10;100.00;99925.44;5046460;28;20051;-66
2021/12/01 00:52:01;;;;;;;5.22;3.75;;;;;;;5.09;100.00;99939.59;5053316;28;20410;-66
2021/12/01 00:54:45;;;;;;;5.07;2.55;;;;;;;5.21;100.00;99936.00;5038890;28;20047;-66
2021/12/01 00:57:29;;;;;;;6.15;3.25;;;;;;;5.30;100.00;99922.09;5053325;28;20064;-66
2021/12/01 01:00:13;;;;;;;2.35;2.15;;;;;;;5.27;100.00;99951.41;5053099;28;20052;-66
2021/12/01 01:02:58;;;;;;;3.58;2.25;;;;;;;5.34;100.00;99917.41;5054172;28;20071;-66
2021/12/01 01:05:42;;;;;;;4.70;3.10;;;;;;;5.39;100.00;99909.94;5052966;28;20509;-66
2021/12/01 01:08:26;;;;;;;6.97;3.67;;;;;;;5.36;100.00;99911.00;5053021;28;20063;-66
2021/12/01 01:16:22;;;;;;;4.72;2.75;;;;;;;5.38;100.00;99902.97;5053784;28;20060;-66
2021/12/01 01:17:24;;;;;;;3.65;2.25;;;;;;;5.41;100.00;99919.44;5052791;28;20067;-66
2021/12/01 01:20:11;;;;;;;3.22;2.72;;;;;;;5.45;100.00;99883.03;5053094;28;20067;-65
2021/12/01 01:22:55;;;;;;;5.38;3.38;;;;;;;5.48;100.00;99883.63;5038336;28;20048;-66
2021/12/01 01:25:39;;;;;;;4.38;2.50;;;;;;;5.44;100.00;99911.25;5052458;28;20068;-65
2021/12/01 01:28:23;;;;;;;;;;;;;;;5.59;100.00;99896.84;5052760;28;20048;-66
2021/12/01 01:31:07;;;;;;;9.77;2.28;;;;;;;5.56;100.00;99891.78;5052683;28;19970;-66
2021/12/01 01:33:51;;;;;;;;;;;;;;;5.54;100.00;99899.00;5052671;28;20047;-65
2021/12/01 01:36:35;;;;;;;5.32;3.10;;;;;;;5.56;100.00;99881.19;5052030;28;19920;-66
2021/12/01 01:39:22;;;;;;;4.47;2.60;;;;;;;5.54;100.00;99877.03;5052170;28;20409;-66
2021/12/01 01:42:06;;;;;;;6.15;2.97;;;;;;;5.52;100.00;99884.25;5052120;28;20051;-66
2021/12/01 01:44:50;;;;;;;3.28;1.52;;;;;;;5.45;100.00;99899.72;5052316;28;20051;-65
2021/12/01 01:47:35;;;;;;;5.80;2.58;;;;;;;5.46;100.00;99874.16;5052998;28;20048;-66
2021/12/01 01:53:21;;;;;;;6.80;1.92;;;;;;;5.49;100.00;99863.31;5052933;28;20098;-66
2021/12/01 01:56:07;;;;;;;4.90;3.17;;;;;;;5.51;100.00;99862.25;5051872;28;20052;-66
2021/12/01 01:58:51;;;;;;;4.03;2.72;;;;;;;5.53;100.00;99848.91;5052929;28;20162;-65
2021/12/01 02:04:27;;;;;;;7.47;2.50;;;;;;;5.54;100.00;99877.84;5052025;28;20107;-65
2021/12/01 02:07:11;;;;;;;6.40;2.78;;;;;;;5.63;100.00;99842.75;5051766;28;20052;-66
2021/12/01 02:09:55;;;;;;;4.78;2.92;;;;;;;5.61;100.00;99849.97;5051719;28;20060;-66
2021/12/01 02:12:39;;;;;;;3.53;2.20;;;;;;;5.62;100.00;99827.00;5053006;28;20048;-66
2021/12/01 02:15:23;;;;;;;2.03;1.83;;;;;;;5.63;100.00;99826.88;5037978;28;20052;-65
2021/12/01 02:18:07;;;;;;;4.15;2.60;;;;;;;5.71;100.00;99837.69;5051963;28;20147;-66
2021/12/01 02:21:03;;;;;;;1.70;1.42;;;;;;;5.76;100.00;99819.63;5037906;28;20107;-65
2021/12/01 02:23:49;;;;;;;2.72;1.92;;;;;;;5.85;100.00;99807.50;5052759;28;20163;-65
2021/12/01 02:26:38;;;;;;;4.32;2.00;;;;;;;5.83;100.00;99804.97;5052998;28;20536;-66
2021/12/01 02:29:25;;;;;;;4.00;2.80;;;;;;;5.83;100.00;99794.41;5051525;28;20072;-65
2021/12/01 02:32:10;;;;;;;3.00;1.77;;;;;;;5.89;100.00;99799.19;5051387;28;20106;-65
2021/12/01 02:34:54;;;;;;;2.40;1.85;;;;;;;5.96;100.00;99788.94;5051471;28;20048;-64
2021/12/01 02:37:38;;;;;;;3.30;2.33;;;;;;;6.01;100.00;99774.38;5037563;23;20468;-66
2021/12/01 02:40:22;;;;;;;2.90;2.05;;;;;;;6.04;100.00;99766.16;4992322;28;20049;-66
2021/12/01 02:43:06;;;;;;;4.10;1.35;;;;;;;6.03;100.00;99747.75;4992044;28;20057;-65
2021/12/01 02:45:52;;;;;;;3.78;2.00;;;;;;;6.12;100.00;99747.00;4993203;28;20470;-66
2021/12/01 02:48:41;;;;;;;4.18;1.70;;;;;;;6.17;100.00;99744.81;4992888;28;20045;-66
2021/12/01 02:51:28;;;;;;;4.05;1.70;;;;;;;6.16;100.00;99728.06;4996145;28;20069;-65
2021/12/01 02:54:12;;;;;;;1.58;1.33;;;;;;;6.17;100.00;99743.00;4996446;28;20526;-65
2021/12/01 02:56:57;;;;;;;1.85;1.52;;;;;;;6.22;100.00;99738.16;4981994;28;20526;-66
2021/12/01 02:59:41;;;;;;;3.60;1.88;;;;;;;6.28;100.00;99772.03;4995953;28;20093;-65
2021/12/01 03:02:25;;;;;;;2.90;1.70;;;;;;;6.26;100.00;99728.16;5009556;28;20053;-65
2021/12/01 03:05:09;;;;;;;;;;;;;;;6.25;100.00;99724.66;4997113;28;20526;-66
2021/12/01 03:07:54;;;;;;;2.45;2.00;;;;;;;6.29;100.00;99718.16;4995781;28;20404;-66
2021/12/01 03:10:38;;;;;;;2.28;1.65;;;;;;;6.32;100.00;99712.59;4995780;28;20045;-66
2021/12/01 03:13:23;;;;;;;3.78;1.30;;;;;;;6.30;100.00;99705.75;4995564;28;20577;-66
2021/12/01 03:16:07;;;;;;;1.85;1.52;;;;;;;6.32;100.00;99709.94;4995481;28;20069;-66
2021/12/01 03:18:51;;;;;;;2.28;2.05;;;;;;;6.39;100.00;99731.44;5009298;28;20077;-66
2021/12/01 03:21:38;;;;;;;1.85;1.60;;;;;;;6.40;100.00;99694.25;4996403;28;20061;-66
2021/12/01 03:24:21;;;;;;;3.90;1.60;;;;;;;6.34;100.00;99702.69;4995452;28;20053;-66
2021/12/01 03:27:05;;;;;;;;;;;;;;;6.39;100.00;99703.16;4995459;28;20060;-65
2021/12/01 03:29:50;;;;;;;3.23;2.23;;;;;;;6.39;100.00;99687.28;4981729;28;19921;-66
2021/12/01 03:32:34;;;;;;;3.75;2.50;;;;;;;6.38;100.00;99721.81;4995101;28;20177;-64
2021/12/01 03:35:19;;;;;;;6.53;1.88;;;;;;;6.46;100.00;99680.47;4995082;28;20081;-66
2021/12/01 03:38:03;;;;;;;3.80;1.70;;;;;;;6.44;100.00;99679.75;4994947;28;20093;-66
2021/12/01 03:40:47;;;;;;;3.38;1.70;;;;;;;6.49;100.00;99669.63;5009001;28;20093;-65
2021/12/01 03:43:31;;;;;;;3.17;1.58;;;;;;;6.51;100.00;99666.81;4995481;28;20522;-66
2021/12/01 03:46:16;;;;;;;2.67;1.70;;;;;;;6.50;100.00;99650.13;4995151;28;20053;-66
2021/12/01 03:49:01;;;;;;;5.82;1.67;;;;;;;6.54;100.00;99646.22;5008678;28;20089;-66
2021/12/01 03:51:45;;;;;;;4.55;1.67;;;;;;;6.61;100.00;99634.13;4996161;28;20195;-66
2021/12/01 03:54:29;;;;;;;4.93;1.90;;;;;;;6.57;100.00;99632.69;4996078;28;20133;-66
2021/12/01 03:57:14;;;;;;;3.22;1.75;;;;;;;6.59;100.00;99614.91;4995897;28;20411;-66
2021/12/01 03:59:58;;;;;;;6.72;1.63;;;;;;;6.65;100.00;99611.69;4995266;28;20134;-66
2021/12/01 04:02:43;;;;;;;1.50;1.25;;;;;;;6.63;100.00;99610.13;4994897;28;20072;-65
2021/12/01 04:05:27;;;;;;;4.18;1.80;;;;;;;6.68;100.00;99608.75;4994793;28;20057;-66
2021/12/01 04:08:11;;;;;;;3.30;1.65;;;;;;;6.70;100.00;99574.19;4995573;28;20129;-65
2021/12/01 04:10:55;;;;;;;5.07;1.23;;;;;;;6.69;100.00;99578.66;4995800;28;20057;-65
2021/12/01 04:13:39;;;;;;;;;;;;;;;6.76;100.00;99563.06;4994840;28;20471;-66
2021/12/01 04:16:23;;;;;;;3.10;1.40;;;;;;;6.77;100.00;99565.56;4995607;28;20291;-65
2021/12/01 04:19:07;;;;;;;3.17;1.17;;;;;;;6.78;100.00;99559.28;4994254;28;20355;-65
2021/12/01 04:21:51;;;;;;;1.23;0.80;;;;;;;6.81;100.00;99543.16;4995558;28;20049;-65
2021/12/01 04:24:35;;;;;;;3.65;1.20;;;;;;;6.90;100.00;99544.97;4994451;28;20230;-66
2021/12/01 04:27:19;;;;;;;1.25;0.82;;;;;;;6.96;100.00;99544.41;4980488;28;20088;-66
2021/12/01 04:30:06;;;;;;;1.70;1.30;;;;;;;6.98;100.00;99544.25;5008065;28;20092;-66
2021/12/01 04:32:51;;;;;;;1.60;1.25;;;;;;;6.96;100.00;99533.78;4995237;28;20088;-65
2021/12/01 04:35:35;;;;;;;1.25;1.15;;;;;;;7.03;100.00;99532.28;4994109;28;20053;-65
2021/12/01 04:38:19;;;;;;;3.25;1.10;;;;;;;7.04;100.00;99528.66;4995064;28;20053;-66
2021/12/01 04:41:03;;;;;;;;;;;;;;;7.16;100.00;99545.25;4995488;28;20053;-65
2021/12/01 04:43:47;;;;;;;1.10;0.98;;;;;;;7.14;100.00;99555.13;4993952;28;19921;-65
2021/12/01 04:46:38;;;;;;;2.08;1.15;;;;;;;7.18;99.53;99511.47;5007929;28;20514;-66
2021/12/01 04:49:23;;;;;;;1.10;1.00;;;;;;;7.28;99.95;99513.13;5007801;28;20162;-66
2021/12/01 04:52:10;;;;;;;1.10;0.85;;;;;;;7.29;99.12;99513.97;5007835;28;20108;-65
2021/12/01 04:54:54;;;;;;;1.05;0.73;;;;;;;7.25;98.75;99524.03;4993958;28;20181;-65
2021/12/01 04:57:40;;;;;;;0.70;0.70;;;;;;;7.30;99.13;99495.25;4994580;28;20100;-65
2021/12/01 05:00:27;;;;;;;3.35;1.00;;;;;;;7.27;99.23;99494.72;4993618;28;20498;-65
2021/12/01 05:03:10;;;;;;;1.23;1.10;;;;;;;7.24;99.19;99556.81;4993491;28;20463;-65
2021/12/01 05:05:54;;;;;;;1.25;1.00;;;;;;;7.31;98.72;99518.16;4993761;28;20134;-66
2021/12/01 05:08:39;;;;;;;0.80;0.70;;;;;;;7.29;99.31;99492.78;4993256;28;20122;-65
2021/12/01 05:11:24;;;;;;;1.30;1.10;;;;;;;7.27;99.16;99466.41;4993066;28;20100;-66
2021/12/01 05:14:09;;;;;;;2.40;1.10;;;;;;;7.29;99.68;99456.47;4993557;28;20558;-66
2021/12/01 05:16:53;;;;;;;2.78;1.17;;;;;;;7.30;99.36;99447.53;4993396;28;20103;-66
2021/12/01 05:19:37;;;;;;;2.33;0.60;;;;;;;7.33;98.72;99447.28;4994715;28;20407;-64
2021/12/01 05:22:21;;;;;;;2.03;1.00;;;;;;;7.36;98.76;99441.69;4994419;28;20419;-65
2021/12/01 05:25:05;;;;;;;1.52;0.88;;;;;;;7.39;97.69;99408.75;4993367;28;20053;-65
2021/12/01 05:27:49;;;;;;;1.88;0.90;;;;;;;7.46;97.16;99413.31;4992939;28;20081;-66
2021/12/01 05:30:33;;;;;;;2.88;0.93;;;;;;;7.50;96.78;99416.53;4993266;28;20108;-66
2021/12/01 05:33:17;;;;;;;1.08;0.77;;;;;;;7.53;96.77;99401.16;4993394;28;20069;-66
2021/12/01 05:36:01;;;;;;;;;;;;;;;7.56;96.37;99411.47;4993333;28;20184;-66
2021/12/01 05:38:45;;;;;;;0.80;0.70;;;;;;;7.59;96.39;99400.56;4993692;28;19925;-66
2021/12/01 05:41:30;;;;;;;2.55;0.80;;;;;;;7.57;96.94;99391.09;4994082;28;20113;-66
2021/12/01 05:44:13;;;;;;;2.10;0.80;;;;;;;7.57;97.35;99402.53;4992755;28;20052;-66
2021/12/01 05:46:58;;;;;;;0.63;0.63;;;;;;;7.54;98.17;99405.47;4992873;28;20112;-66
2021/12/01 05:49:42;;;;;;;1.48;0.85;;;;;;;7.53;98.81;99379.94;4993938;28;20041;-65
2021/12/01 05:52:26;;;;;;;2.35;0.68;;;;;;;7.53;99.10;99374.63;4992612;28;20177;-66
2021/12/01 05:55:10;;;;;;;1.15;0.95;;;;;;;7.56;98.85;99395.56;4992655;28;20057;-66
2021/12/01 05:57:54;;;;;;;1.10;0.70;;;;;;;7.61;98.37;99394.13;4992623;28;20050;-65
2021/12/01 06:00:38;;;;;;;1.10;1.00;;;;;;;7.61;98.02;99367.59;4978874;28;20053;-66
2021/12/01 06:03:22;;;;;;;0.50;0.50;;;;;;;7.61;98.20;99378.22;4993500;28;20085;-66
2021/12/01 06:06:06;;;;;;;1.48;0.50;;;;;;;7.59;98.06;99366.94;4992696;28;20049;-65
2021/12/01 06:08:50;;;;;;;1.45;0.75;;;;;;;7.65;98.11;99374.28;4992285;28;20550;-66
2021/12/01 06:11:35;;;;;;;2.80;1.40;;;;;;;7.69;97.27;99365.06;4992574;28;20169;-66
2021/12/01 06:14:19;;;;;;;1.42;0.57;;;;;;;7.70;96.92;99397.72;4992552;28;20417;-65
2021/12/01 06:17:03;;;;;;;4.32;0.60;;;;;;;7.78;96.35;99363.31;4992374;28;20049;-65
2021/12/01 06:19:48;;;;;;;2.42;0.60;;;;;;;7.82;96.31;99362.06;4992326;28;20069;-66
2021/12/01 06:22:32;;;;;;;0.73;0.60;;;;;;;7.82;97.14;99351.44;4992121;28;20100;-66
2021/12/01 06:25:15;;;;;;;4.32;0.70;;;;;;;7.82;97.41;99354.09;4992306;28;20534;-66
2021/12/01 06:27:59;;;;;;;0.75;0.60;;;;;;;7.83;97.88;99355.78;4992367;28;20443;-66
2021/12/01 06:30:44;;;;;;;3.60;0.70;;;;;;;7.80;98.03;99362.19;4992396;28;20115;-66
2021/12/01 06:33:27;;;;;;;1.33;0.80;;;;;;;7.74;99.04;99332.78;4992330;28;20104;-66
2021/12/01 06:36:11;;;;;;;0.90;0.63;;;;;;;7.76;98.49;99321.00;4993398;28;20508;-66
2021/12/01 06:38:55;;;;;;;1.63;0.70;;;;;;;7.81;98.55;99313.47;4993269;28;20635;-66
2021/12/01 06:41:40;;;;;;;1.40;0.80;;;;;;;7.84;98.62;99317.63;5006181;28;20077;-66
2021/12/01 06:44:24;;;;;;;1.88;0.63;;;;;;;7.82;97.60;99332.88;4992112;28;20615;-65
2021/12/01 06:47:08;;;;;;;0.70;0.70;;;;;;;7.89;99.15;99302.94;4992307;28;20049;-65
2021/12/01 06:49:52;;;;;;;;;;;;;;;7.85;99.38;99321.97;4992679;28;20080;-66
2021/12/01 06:52:38;;;;;;;2.63;0.98;;;;;;;7.86;100.00;99299.75;4993193;28;19960;-66
2021/12/01 06:55:23;;;;;;;0.65;0.65;;;;;;;7.80;100.00;99292.38;4993044;28;20082;-66
2021/12/01 06:58:06;;;;;;;0.68;0.50;;;;;;;7.81;100.00;99294.03;4993188;28;20120;-66
2021/12/01 07:00:50;;;;;;;;;;;;;;;7.87;100.00;99290.78;4992530;28;20049;-65
2021/12/01 07:03:35;;;;;;;2.35;0.80;;;;;;;7.83;100.00;99266.38;4991956;28;19921;-66
2021/12/01 07:06:19;;;;;;;0.77;0.73;;;;;;;7.82;100.00;99258.59;4991845;28;20100;-65
2021/12/01 07:09:03;;;;;;;1.27;0.80;;;;;;;7.82;100.00;99255.94;4991721;28;20085;-66
2021/12/01 07:11:47;;;;;;;2.08;0.80;;;;;;;7.79;100.00;99248.25;4993111;28;20050;-66
2021/12/01 07:14:31;;;;;;;0.43;0.43;;;;;;;7.75;100.00;99229.16;4992009;28;20101;-65
2021/12/01 07:17:15;;;;;;;1.95;0.70;;;;;;;7.80;100.00;99228.69;4992661;28;20061;-66
2021/12/01 07:19:59;;;;;;;2.33;0.80;;;;;;;7.79;100.00;99233.19;4992953;28;20053;-66
2021/12/01 07:22:43;;;;;;;0.80;0.70;;;;;;;7.86;100.00;99214.84;5005830;28;20446;-66
2021/12/01 07:25:26;;;;;;;0.85;0.75;;;;;;;7.88;100.00;99211.06;4991894;28;20061;-66
2021/12/01 07:28:10;;;;;;;1.05;0.55;;;;;;;7.96;100.00;99215.59;5005448;28;20472;-66
2021/12/01 07:30:54;;;;;;;0.60;0.60;;;;;;;8.00;99.79;99185.09;4991795;28;20589;-66
2021/12/01 07:33:39;;;;;;;1.13;0.70;;;;;;;8.07;99.75;99188.81;4991834;28;20049;-66
2021/12/01 07:36:23;;;;;;;0.73;0.60;;;;;;;8.10;98.92;99175.22;4994462;28;20141;-66
2021/12/01 07:39:07;;;;;;;0.55;0.55;;;;;;;8.13;98.05;99177.59;4994925;28;20096;-65
2021/12/01 07:41:50;;;;;;;3.45;0.88;;;;;;;8.20;97.55;99170.69;4995587;28;20152;-66
2021/12/01 07:44:34;;;;;;;0.45;0.45;;;;;;;8.21;96.78;99169.69;4996266;28;20166;-66
2021/12/01 07:47:18;;;;;;;0.75;0.40;;;;;;;8.24;96.28;99164.91;4994973;28;20077;-66
2021/12/01 07:50:04;;;;;;;0.68;0.40;;;;;;;8.34;95.95;99156.84;4994717;28;20463;-66
2021/12/01 07:52:48;;;;;;;0.73;0.50;;;;;;;8.35;94.60;99156.66;5008965;28;20048;-66
2021/12/01 07:55:32;;;;;;;0.65;0.52;;;;;;;8.50;93.72;99148.94;5009176;28;20412;-65
2021/12/01 07:58:16;;;;;;;1.17;0.50;;;;;;;8.46;94.26;99168.88;4994659;28;20177;-66
2021/12/01 08:01:00;;;;;;;;;;;;;;;8.52;95.63;99139.00;4995362;28;20053;-66
2021/12/01 08:03:44;;;;;;;0.83;0.50;;;;;;;8.34;99.26;99155.00;4995934;28;20378;-65
2021/12/01 08:06:30;;;;;;;0.40;0.40;;;;;;;8.23;100.00;99131.38;4995713;28;20050;-66
2021/12/01 08:09:14;;;;;;;1.10;0.75;;;;;;;8.23;100.00;99130.56;4995097;28;20054;-65
2021/12/01 08:11:58;;;;;;;0.47;0.45;;;;;;;8.17;100.00;99134.63;4995796;28;20115;-65
2021/12/01 08:14:42;;;;;;;0.65;0.40;;;;;;;8.14;100.00;99169.44;4994653;28;20249;-65
2021/12/01 08:17:26;;;;;;;1.25;0.68;;;;;;;8.23;100.00;99125.25;4994811;28;20594;-66
2021/12/01 08:20:10;;;;;;;1.85;0.70;;;;;;;8.17;100.00;99178.94;5008451;28;20073;-66
2021/12/01 08:22:55;;;;;;;0.93;0.57;;;;;;;8.25;100.00;99102.03;4994362;28;20080;-66
2021/12/01 08:25:38;;;;;;;0.30;0.30;;;;;;;8.21;100.00;99108.63;4995499;28;20050;-66
2021/12/01 08:28:22;;;;;;;1.58;0.60;;;;;;;8.35;100.00;99108.06;4994094;28;20045;-66
2021/12/01 08:31:06;;;;;;;1.65;0.50;;;;;;;8.33;100.00;99116.19;5008020;28;20096;-66
2021/12/01 08:33:50;;;;;;;1.30;0.43;;;;;;;8.36;100.00;99101.75;4995048;28;20531;-66
2021/12/01 08:36:34;;;;;;;;;;;;;;;8.51;100.00;99094.84;5008521;28;20502;-66
2021/12/01 08:39:18;;;;;;;0.67;0.60;;;;;;;8.50;99.41;99103.81;4980286;28;19925;-65
2021/12/01 08:42:02;;;;;;;0.45;0.45;;;;;;;8.60;97.82;99070.81;4995212;28;20495;-66
2021/12/01 08:44:48;;;;;;;1.75;0.40;;;;;;;8.63;96.78;99085.59;4995203;28;20156;-66
2021/12/01 08:47:32;;;;;;;0.75;0.52;;;;;;;8.69;95.25;99123.00;4993836;28;20073;-66
2021/12/01 08:50:17;;;;;;;0.30;0.30;;;;;;;8.74;94.20;99087.94;5007748;28;20150;-65
2021/12/01 08:53:01;;;;;;;0.20;0.20;;;;;;;8.85;93.04;99069.91;5019425;22;20096;-65
2021/12/01 08:55:45;;;;;;;1.50;0.40;;;;;;;8.92;92.46;99075.38;4999508;28;20088;-66
2021/12/01 08:58:30;;;;;;;0.40;0.40;;;;;;;9.03;91.41;99038.72;5013247;28;20146;-66
2021/12/01 09:01:14;;;;;;;0.30;0.30;;;;;;;9.09;90.56;99034.56;5013147;28;20049;-66
2021/12/01 09:03:58;;;;;;;0.85;0.50;;;;;;;9.15;89.49;99029.41;5014263;28;20506;-66
2021/12/01 09:06:42;;;;;;;1.20;0.70;;;;;;;9.20;87.73;99029.78;5013350;28;20129;-66
2021/12/01 09:09:26;;;;;;;1.08;0.30;;;;;;;9.23;87.09;99020.59;5013887;28;20053;-66
2021/12/01 09:12:10;;;;;;;0.50;0.50;;;;;;;9.30;86.71;99010.97;5013170;28;20351;-66
2021/12/01 09:14:55;;;;;;;1.02;0.60;;;;;;;9.34;86.86;99012.31;5012840;28;20549;-65
2021/12/01 09:17:39;;;;;;;1.70;0.82;;;;;;;9.45;86.03;98990.69;5013048;28;20057;-65
2021/12/01 09:20:24;;;;;;;0.70;0.57;;;;;;;9.41;85.89;99007.97;5013109;28;20095;-66
2021/12/01 09:23:08;;;;;;;2.17;0.60;;;;;;;9.36;86.02;98997.84;4998959;28;20072;-65
2021/12/01 09:25:53;;;;;;;1.00;0.55;;;;;;;9.45;85.49;99004.81;5013020;28;20498;-65
2021/12/01 09:28:37;;;;;;;0.90;0.40;;;;;;;9.42;85.56;99033.59;4998959;28;20549;-65
2021/12/01 09:31:21;;;;;;;1.15;0.60;;;;;;;9.48;85.98;98982.38;5012654;28;20103;-65
2021/12/01 09:34:04;;;;;;;0.50;0.40;;;;;;;9.48;85.49;99022.28;5012875;28;20052;-64
2021/12/01 09:36:48;;;;;;;1.10;0.70;;;;;;;9.55;85.62;98972.72;5013795;28;20545;-65
2021/12/01 09:39:33;;;;;;;0.47;0.47;;;;;;;9.57;85.80;98976.88;5012524;28;20045;-65
2021/12/01 09:42:17;;;;;;;0.90;0.65;;;;;;;9.54;85.94;98965.72;5013702;28;20049;-65
2021/12/01 09:45:02;;;;;;;0.52;0.52;;;;;;;9.52;86.33;98960.59;5013559;28;20137;-63
2021/12/01 09:47:48;;;;;;;0.30;0.30;;;;;;;9.48;87.24;98967.25;5013285;28;20095;-65
2021/12/01 09:50:32;;;;;;;0.40;0.40;;;;;;;9.52;87.68;98959.75;4998548;28;20052;-66
2021/12/01 09:53:16;;;;;;;0.68;0.40;;;;;;;9.45;89.18;98962.28;5013390;28;20107;-66
2021/12/01 09:56:00;;;;;;;0.60;0.43;;;;;;;9.38;91.64;98955.13;5013191;28;20045;-66
2021/12/01 09:58:44;;;;;;;0.45;0.45;;;;;;;9.35;92.06;98945.66;5011998;28;20133;-64
2021/12/01 10:01:28;;;;;;;0.38;0.32;;;;;;;9.25;93.16;98954.78;5012434;28;20441;-66
2021/12/01 10:04:12;;;;;;;1.85;0.50;;;;;;;9.23;95.64;98940.84;4984543;28;20478;-66
2021/12/01 10:07:19;;;;;;;0.40;0.40;;;;;;;9.10;100.00;98941.38;5013241;28;20481;-66
2021/12/01 10:10:08;;;;;;;0.40;0.40;;;;;;;9.00;100.00;98951.34;5012355;28;20124;-65
2021/12/01 10:12:52;;;;;;;0.52;0.50;;;;;;;8.93;100.00;98918.44;5013082;28;20048;-65
2021/12/01 10:15:37;;;;;;;1.67;0.40;;;;;;;8.92;100.00;98905.31;5013155;28;20057;-64
2021/12/01 10:18:21;;;;;;;0.40;0.30;;;;;;;8.80;100.00;98909.31;5012365;28;20045;-65
2021/12/01 10:21:08;;;;;;;3.88;0.57;;;;;;;8.74;100.00;98899.31;5013290;28;20052;-65
2021/12/01 10:23:55;;;;;;;0.50;0.50;;;;;;;8.71;100.00;98899.66;5012903;28;20048;-62
2021/12/01 10:26:47;;;;;;;0.90;0.40;;;;;;;8.67;100.00;98879.75;5011817;28;20049;-65
2021/12/01 10:29:44;;;;;;;2.20;0.50;;;;;;;8.66;100.00;98852.34;5011857;28;20419;-65
2021/12/01 10:32:28;;;;;;;0.77;0.60;;;;;;;8.77;100.00;98853.84;5011965;28;20049;-66
2021/12/01 10:35:12;;;;;;;0.93;0.70;;;;;;;8.82;100.00;98843.53;5012888;28;20092;-66
2021/12/01 10:37:56;;;;;;;0.70;0.43;;;;;;;8.72;100.00;98838.41;5011732;28;20072;-66
2021/12/01 10:40:40;;;;;;;0.40;0.40;;;;;;;8.74;100.00;98832.91;5012973;28;20116;-63
2021/12/01 10:43:35;;;;;;;0.55;0.52;;;;;;;8.80;100.00;98842.88;5012838;28;20048;-66
2021/12/01 10:46:20;;;;;;;0.75;0.52;;;;;;;8.86;100.00;98839.56;5011801;28;20095;-65
2021/12/01 10:49:05;;;;;;;0.85;0.57;;;;;;;8.70;100.00;98842.22;5012552;28;20111;-62
2021/12/01 10:51:50;;;;;;;0.57;0.35;;;;;;;8.55;100.00;98836.72;5012941;28;20510;-64
2021/12/01 10:54:33;;;;;;;1.20;0.47;;;;;;;8.51;100.00;98832.75;5012420;28;20099;-65
2021/12/01 10:57:22;;;;;;;0.68;0.68;;;;;;;8.55;100.00;98806.72;5012019;28;20044;-65
2021/12/01 11:00:13;;;;;;;4.05;0.43;;;;;;;8.52;100.00;98791.09;5011718;28;20072;-64
2021/12/01 11:03:17;;;;;;;1.92;1.00;;;;;;;8.49;100.00;98820.63;5012929;28;20052;-65
2021/12/01 11:06:20;;;;;;;2.35;0.50;;;;;;;8.56;100.00;98787.94;5011457;28;20084;-64
2021/12/01 11:09:05;;;;;;;0.80;0.40;;;;;;;8.53;100.00;98782.13;5012489;28;20052;-64
2021/12/01 11:11:51;;;;;;;0.43;0.43;;;;;;;8.43;100.00;98810.66;5014740;28;20048;-63
2021/12/01 11:14:43;;;;;;;1.25;0.57;;;;;;;8.57;100.00;98773.66;5016453;28;20057;-61
2021/12/01 11:17:42;;;;;;;1.05;0.65;;;;;;;8.61;100.00;98768.84;5016346;28;20052;-64
2021/12/01 11:20:35;;;;;;;3.28;0.52;;;;;;;8.49;100.00;98775.50;5015188;28;20080;-63
2021/12/01 11:23:25;;;;;;;1.95;0.60;;;;;;;8.52;100.00;98757.41;5016072;28;20052;-64
2021/12/01 11:26:12;;;;;;;1.65;0.73;;;;;;;8.52;100.00;98780.47;5001277;28;20125;-63
2021/12/01 11:28:58;;;;;;;1.30;0.43;;;;;;;8.54;100.00;98773.19;5014960;28;20049;-65
2021/12/01 11:31:44;;;;;;;4.57;0.85;;;;;;;8.60;100.00;98740.63;5015840;28;20518;-66
2021/12/01 11:34:28;;;;;;;1.20;0.70;;;;;;;8.62;100.00;98733.31;5014757;28;20096;-63
2021/12/01 11:37:12;;;;;;;0.73;0.70;;;;;;;8.59;100.00;98729.19;5015889;28;20048;-65
2021/12/01 11:39:57;;;;;;;0.80;0.60;;;;;;;8.64;100.00;98721.53;5014807;28;20040;-65
2021/12/01 11:42:41;;;;;;;3.78;0.77;;;;;;;8.74;100.00;98708.88;5014754;28;20053;-63
2021/12/01 11:45:25;;;;;;;0.77;0.50;;;;;;;8.61;100.00;98742.28;5015685;28;20092;-65
2021/12/01 11:48:21;;;;;;;;;;;;;;;8.70;100.00;98698.75;5015134;28;20076;-62
2021/12/01 11:51:27;;;;;;;0.60;0.60;;;;;;;8.72;100.00;98680.81;5000622;28;19948;-64
2021/12/01 11:54:16;;;;;;;0.50;0.40;;;;;;;8.70;100.00;98693.44;5014351;28;20041;-63
2021/12/01 11:57:04;;;;;;;6.35;0.55;;;;;;;8.74;100.00;98700.06;5014276;28;20139;-64
2021/12/01 11:59:48;;;;;;;0.60;0.60;;;;;;;8.73;100.00;98671.84;5015336;28;20225;-64
2021/12/01 12:02:34;;;;;;;0.35;0.35;;;;;;;8.75;100.00;98662.72;5015559;28;20053;-64
2021/12/01 12:05:18;;;;;;;0.63;0.60;;;;;;;8.81;100.00;98661.19;5015394;28;20084;-65
2021/12/01 12:08:05;;;;;;;1.05;0.82;;;;;;;8.84;100.00;98658.19;5015180;28;20052;-64
2021/12/01 12:10:49;;;;;;;2.15;0.63;;;;;;;8.91;100.00;98644.06;5015378;28;20092;-65
2021/12/01 12:14:00;;;;;;;0.60;0.60;;;;;;;8.80;100.00;98681.66;5014146;28;20048;-65
2021/12/01 12:17:04;;;;;;;2.63;1.10;;;;;;;9.00;100.00;98643.03;5000319;28;20111;-65
2021/12/01 12:19:58;;;;;;;0.68;0.60;;;;;;;9.03;100.00;98641.84;5014050;28;20103;-63
2021/12/01 12:22:44;;;;;;;1.63;0.60;;;;;;;8.90;100.00;98645.06;5014850;28;20096;-65
2021/12/01 12:25:57;;;;;;;0.68;0.52;;;;;;;8.96;100.00;98643.56;5014752;28;20053;-64
2021/12/01 12:28:42;;;;;;;8.38;1.63;;;;;;;9.02;100.00;98629.56;5013922;28;20049;-64
2021/12/01 12:31:27;;;;;;;0.80;0.60;;;;;;;8.98;100.00;98622.94;5014112;28;20095;-63
2021/12/01 12:34:24;;;;;;;0.75;0.63;;;;;;;8.82;100.00;98628.31;5013675;28;20045;-63
2021/12/01 12:37:20;;;;;;;2.75;0.82;;;;;;;8.83;100.00;98641.44;5013851;28;20566;-64
2021/12/01 12:40:12;;;;;;;1.63;0.93;;;;;;;8.85;100.00;98634.13;5014525;28;20045;-63
2021/12/01 12:43:11;;;;;;;1.90;0.90;;;;;;;8.89;100.00;98618.66;5013307;28;20044;-62
2021/12/01 12:46:03;;;;;;;0.70;0.70;;;;;;;8.84;100.00;98628.97;5013574;28;20145;-61
2021/12/01 12:48:52;;;;;;;1.10;0.77;;;;;;;8.92;100.00;98619.16;5013275;28;20072;-63
2021/12/01 12:51:38;;;;;;;1.95;0.80;;;;;;;8.92;100.00;98619.16;5013298;28;20052;-64
2021/12/01 12:54:22;;;;;;;10.82;1.75;;;;;;;8.92;100.00;98610.34;5014046;28;20136;-64
2021/12/01 12:57:07;;;;;;;0.85;0.60;;;;;;;8.88;100.00;98601.06;5013412;28;20412;-63
2021/12/01 13:00:16;;;;;;;2.20;1.08;;;;;;;8.88;100.00;98595.75;5013074;28;20057;-64
2021/12/01 13:03:22;;;;;;;0.85;0.60;;;;;;;8.81;100.00;98594.78;5014467;28;20064;-64
2021/12/01 13:06:08;;;;;;;3.63;0.60;;;;;;;8.81;100.00;98584.16;5014222;28;20206;-64
2021/12/01 13:08:52;;;;;;;0.60;0.57;;;;;;;8.88;100.00;98582.47;5013227;28;20162;-65
2021/12/01 13:11:36;;;;;;;1.38;0.52;;;;;;;8.78;100.00;98589.81;5013966;28;20104;-64
2021/12/01 13:14:20;;;;;;;1.13;0.63;;;;;;;8.87;100.00;98567.53;5012956;28;20415;-63
2021/12/01 13:17:04;;;;;;;1.83;0.82;;;;;;;8.83;100.00;98563.53;5013003;28;20040;-64
2021/12/01 13:19:48;;;;;;;0.98;0.50;;;;;;;8.86;100.00;98553.41;5014464;28;20077;-64